Time;durP1;ratioP1;P1;durP2;ratioP2;P2;SDS_P1;SDS_P2;PMS_P1;PMS_P2;Temp;Humidity;BMP_temperature;BMP_pressure;BME280_temperature;BME280_humidity;BME280_pressure;Samples;Min_cycle;Max_cycle;Signal;HPM_P1;HPM_P2
2022/05/30 00:00:38;;;;;;;0.30;0.30;;;;;;;24.68;28.27;98256.72;5069472;28;20454;-67
2022/05/30 00:03:04;;;;;;;0.35;0.30;;;;;;;24.66;28.15;98258.38;5069438;28;20044;-67
2022/05/30 00:05:30;;;;;;;0.77;0.50;;;;;;;24.68;28.27;98256.72;5069287;28;20407;-67
2022/05/30 00:07:56;;;;;;;0.40;0.30;;;;;;;24.68;28.34;98259.53;5069602;28;20098;-67
2022/05/30 00:10:22;;;;;;;0.50;0.40;;;;;;;24.69;28.20;98254.72;5069212;28;20041;-67
2022/05/30 00:12:47;;;;;;;0.30;0.30;;;;;;;24.67;28.42;98262.75;5069327;28;20075;-67
2022/05/30 00:15:16;;;;;;;0.43;0.30;;;;;;;24.66;28.12;98250.00;5069556;28;20051;-67
2022/05/30 00:17:42;;;;;;;0.77;0.30;;;;;;;24.66;28.17;98250.00;5069397;28;20052;-66
2022/05/30 00:20:08;;;;;;;0.38;0.38;;;;;;;24.64;28.24;98244.81;5069363;28;20053;-67
2022/05/30 00:22:34;;;;;;;0.30;0.30;;;;;;;24.62;28.24;98243.69;5051330;28;20546;-67
2022/05/30 00:24:59;;;;;;;0.25;0.20;;;;;;;24.63;28.40;98246.03;5051322;28;20048;-66
2022/05/30 00:27:25;;;;;;;0.28;0.20;;;;;;;24.64;28.31;98253.19;5069341;28;20055;-67
2022/05/30 00:29:50;;;;;;;0.30;0.22;;;;;;;24.64;28.52;98258.78;5069077;28;20098;-67
2022/05/30 00:32:16;;;;;;;0.28;0.28;;;;;;;24.61;28.26;98251.28;5069243;28;20041;-67
2022/05/30 00:34:41;;;;;;;0.55;0.30;;;;;;;24.61;28.28;98256.09;5069265;28;20115;-67
2022/05/30 00:37:07;;;;;;;0.47;0.40;;;;;;;24.57;28.34;98247.75;5068838;28;20064;-70
2022/05/30 00:39:33;;;;;;;0.57;0.40;;;;;;;24.58;28.56;98254.94;5068841;28;20145;-70
2022/05/30 00:42:15;;;;;;;0.25;0.25;;;;;;;24.56;28.43;98257.34;5069310;28;20041;-70
2022/05/30 00:44:43;;;;;;;0.38;0.35;;;;;;;24.55;28.42;98264.16;5074930;28;20120;-69
2022/05/30 00:47:09;;;;;;;0.28;0.25;;;;;;;24.55;28.53;98266.19;5075603;28;20047;-67
2022/05/30 00:49:38;;;;;;;0.60;0.35;;;;;;;24.55;28.59;98261.38;5078821;28;20041;-67
2022/05/30 00:52:07;;;;;;;0.30;0.30;;;;;;;24.51;28.73;98252.28;5068628;28;20047;-67
2022/05/30 00:54:41;;;;;;;0.30;0.30;;;;;;;24.52;28.75;98256.66;5058308;28;20056;-67
2022/05/30 00:57:20;;;;;;;0.43;0.40;;;;;;;24.54;28.50;98261.81;5059764;28;20404;-66
2022/05/30 00:59:51;;;;;;;0.47;0.38;;;;;;;24.54;28.68;98261.81;5064455;28;20057;-67
2022/05/30 01:02:17;;;;;;;0.38;0.30;;;;;;;24.50;28.80;98252.69;5066992;28;20068;-70
2022/05/30 01:07:27;;;;;;;0.38;0.30;;;;;;;24.52;28.91;98253.84;5071484;28;20064;-70
2022/05/30 01:09:55;;;;;;;0.57;0.32;;;;;;;24.51;28.77;98248.69;5041181;28;20040;-70
2022/05/30 01:12:36;;;;;;;0.40;0.30;;;;;;;24.49;28.70;98259.50;5072092;28;20052;-70
2022/05/30 01:15:03;;;;;;;0.95;0.30;;;;;;;24.49;28.80;98254.69;5070619;28;20090;-70
2022/05/30 01:17:29;;;;;;;0.20;0.20;;;;;;;24.51;28.96;98254.28;5072115;28;20490;-70
2022/05/30 01:19:59;;;;;;;0.20;0.20;;;;;;;24.51;28.74;98252.28;5071834;28;20991;-70
2022/05/30 01:23:03;;;;;;;0.40;0.30;;;;;;;24.51;28.99;98248.69;5072217;28;20043;-70
2022/05/30 01:25:47;;;;;;;0.43;0.40;;;;;;;24.49;28.88;98251.91;5061084;28;20140;-70
2022/05/30 01:28:22;;;;;;;0.60;0.40;;;;;;;24.51;29.01;98249.50;5069401;28;20037;-70
2022/05/30 01:30:48;;;;;;;0.45;0.30;;;;;;;24.51;29.08;98252.28;5072115;28;20045;-70
2022/05/30 01:33:13;;;;;;;0.40;0.30;;;;;;;24.50;29.04;98249.88;5071694;28;20531;-70
2022/05/30 01:35:39;;;;;;;0.30;0.20;;;;;;;24.49;29.08;98251.91;5071661;28;20501;-70
2022/05/30 01:38:04;;;;;;;0.45;0.40;;;;;;;24.50;29.30;98252.69;5071879;28;20127;-70
2022/05/30 01:40:30;;;;;;;0.68;0.30;;;;;;;24.50;29.25;98258.28;5071609;28;20048;-70
2022/05/30 01:42:56;;;;;;;0.55;0.40;;;;;;;24.50;29.16;98264.66;5071738;28;20039;-70
2022/05/30 01:45:23;;;;;;;0.75;0.55;;;;;;;24.49;29.20;98263.09;5071521;28;20132;-70
2022/05/30 01:47:49;;;;;;;0.73;0.40;;;;;;;24.49;29.24;98263.09;5071387;28;20048;-70
2022/05/30 01:50:15;;;;;;;0.45;0.30;;;;;;;24.49;29.23;98263.09;5071636;28;20040;-70
2022/05/30 01:52:40;;;;;;;0.73;0.40;;;;;;;24.48;29.32;98253.13;5071444;28;20123;-67
2022/05/30 01:55:06;;;;;;;0.80;0.50;;;;;;;24.47;29.46;98245.16;5071388;28;20087;-67
2022/05/30 01:57:32;;;;;;;0.60;0.40;;;;;;;24.48;29.48;98255.91;5071661;28;20044;-66
2022/05/30 01:59:57;;;;;;;0.40;0.30;;;;;;;24.49;29.31;98256.69;5070449;28;20052;-67
2022/05/30 02:02:22;;;;;;;0.50;0.40;;;;;;;24.49;29.47;98251.91;5071151;28;20037;-66
2022/05/30 02:04:48;;;;;;;0.40;0.30;;;;;;;24.48;29.48;98250.31;5071375;28;20400;-66
2022/05/30 02:07:14;;;;;;;0.40;0.30;;;;;;;24.48;29.35;98260.72;5070738;28;20106;-67
2022/05/30 02:09:39;;;;;;;0.40;0.30;;;;;;;24.47;29.44;98259.94;5058771;28;20049;-67
2022/05/30 02:12:05;;;;;;;0.30;0.22;;;;;;;24.47;29.53;98259.16;5071276;28;20083;-67
2022/05/30 02:14:30;;;;;;;0.20;0.20;;;;;;;24.46;29.41;98263.94;5071144;28;20315;-67
2022/05/30 02:17:04;;;;;;;0.30;0.28;;;;;;;24.47;29.48;98257.13;5071208;28;20086;-67
2022/05/30 02:19:36;;;;;;;0.40;0.30;;;;;;;24.47;29.63;98262.72;5070915;28;20045;-66
2022/05/30 02:22:02;;;;;;;;;;;;;;;24.49;29.46;98260.28;5071464;28;20041;-67
2022/05/30 02:24:28;;;;;;;0.40;0.30;;;;;;;24.48;29.39;98261.50;5070792;28;19938;-66
2022/05/30 02:26:54;;;;;;;0.30;0.30;;;;;;;24.43;29.50;98254.41;5070988;28;20036;-66
2022/05/30 02:29:22;;;;;;;0.32;0.30;;;;;;;24.46;29.68;98265.97;5070590;28;20131;-67
2022/05/30 02:31:47;;;;;;;0.55;0.30;;;;;;;24.45;29.73;98262.38;5071000;28;20048;-66
2022/05/30 02:36:57;;;;;;;0.47;0.30;;;;;;;24.40;29.78;98254.47;5059401;28;20040;-67
2022/05/30 02:39:25;;;;;;;0.52;0.40;;;;;;;24.43;29.74;98248.81;5070415;28;20048;-67
2022/05/30 02:41:51;;;;;;;0.50;0.32;;;;;;;24.41;29.68;98256.03;5070746;28;20389;-66
2022/05/30 02:44:20;;;;;;;0.47;0.30;;;;;;;24.43;29.82;98253.59;5070611;28;20071;-66
2022/05/30 02:46:47;;;;;;;0.47;0.30;;;;;;;24.43;29.76;98260.00;5052558;28;20420;-66
2022/05/30 02:49:13;;;;;;;0.88;0.43;;;;;;;24.41;30.00;98258.84;5070652;28;20397;-67
2022/05/30 02:51:39;;;;;;;0.65;0.40;;;;;;;24.41;29.94;98261.63;5070450;28;20032;-66
2022/05/30 02:54:05;;;;;;;0.77;0.40;;;;;;;24.39;29.97;98259.28;5070756;28;20753;-67
2022/05/30 02:56:30;;;;;;;0.60;0.40;;;;;;;24.40;29.81;98265.66;5070498;28;20118;-66
2022/05/30 02:59:01;;;;;;;0.82;0.40;;;;;;;24.40;29.87;98271.25;5067195;28;20536;-67
2022/05/30 03:01:27;;;;;;;0.45;0.40;;;;;;;24.40;29.87;98265.66;5060584;28;20037;-66
2022/05/30 03:03:53;;;;;;;0.55;0.30;;;;;;;24.39;30.02;98258.50;5070235;28;20436;-67
2022/05/30 03:06:18;;;;;;;0.30;0.30;;;;;;;24.39;29.90;98262.06;5070433;28;20036;-67
2022/05/30 03:08:44;;;;;;;0.20;0.20;;;;;;;24.39;29.90;98253.69;5070260;28;20514;-67
2022/05/30 03:11:10;;;;;;;0.25;0.20;;;;;;;24.36;30.05;98248.16;5068762;28;20044;-67
2022/05/30 03:13:37;;;;;;;0.40;0.30;;;;;;;24.38;30.10;98256.91;5070164;28;20056;-66
2022/05/30 03:16:03;;;;;;;0.45;0.35;;;;;;;24.36;30.12;98254.56;5070206;28;20044;-67
2022/05/30 03:18:28;;;;;;;0.52;0.30;;;;;;;24.38;30.19;98251.31;5070209;28;20037;-66
2022/05/30 03:20:54;;;;;;;0.43;0.40;;;;;;;24.38;29.90;98243.72;5069894;28;20097;-67
2022/05/30 03:23:19;;;;;;;0.52;0.40;;;;;;;24.37;30.04;98256.13;5070216;28;20504;-66
2022/05/30 03:25:45;;;;;;;0.60;0.30;;;;;;;24.37;29.95;98253.34;5070031;28;20500;-67
2022/05/30 03:28:10;;;;;;;0.90;0.50;;;;;;;24.37;29.98;98250.53;5056137;28;20051;-67
2022/05/30 03:30:37;;;;;;;0.75;0.40;;;;;;;24.37;30.00;98250.53;5070096;28;20040;-66
2022/05/30 03:33:07;;;;;;;0.50;0.38;;;;;;;24.37;30.03;98252.53;5069826;28;20493;-67
2022/05/30 03:35:33;;;;;;;0.55;0.38;;;;;;;24.36;30.18;98242.56;5069952;28;20053;-67
2022/05/30 03:37:59;;;;;;;0.52;0.40;;;;;;;24.36;30.15;98245.34;5069647;28;20044;-70
2022/05/30 03:40:25;;;;;;;0.47;0.40;;;;;;;24.34;30.14;98250.59;5069838;28;20051;-70
2022/05/30 03:42:50;;;;;;;0.30;0.30;;;;;;;24.35;30.04;98257.75;5069769;28;20048;-66
2022/05/30 03:45:16;;;;;;;0.50;0.30;;;;;;;24.33;30.07;98247.00;5069623;28;20389;-66
2022/05/30 03:47:44;;;;;;;0.40;0.40;;;;;;;24.37;30.22;98260.94;5069763;28;20048;-67
2022/05/30 03:50:13;;;;;;;0.38;0.30;;;;;;;24.37;30.09;98270.09;5069480;28;20044;-67
2022/05/30 03:52:38;;;;;;;0.38;0.30;;;;;;;24.37;30.21;98266.53;5069742;28;20052;-66
2022/05/30 03:55:11;;;;;;;0.57;0.40;;;;;;;24.38;30.17;98268.09;5069563;28;20041;-66
2022/05/30 03:57:37;;;;;;;0.45;0.30;;;;;;;24.37;30.13;98267.31;5069623;28;20072;-67
2022/05/30 04:00:04;;;;;;;0.40;0.30;;;;;;;24.36;30.31;98271.31;5056930;28;20041;-70
2022/05/30 04:02:29;;;;;;;0.40;0.30;;;;;;;24.36;30.43;98276.91;5049872;28;20059;-70
2022/05/30 04:04:55;;;;;;;0.28;0.28;;;;;;;24.37;30.21;98272.09;5069707;28;20119;-70
2022/05/30 04:07:21;;;;;;;0.63;0.45;;;;;;;24.35;30.44;98274.53;5069314;28;20051;-70
2022/05/30 04:09:46;;;;;;;0.20;0.20;;;;;;;24.34;30.46;98282.13;5069230;28;20096;-70
2022/05/30 04:12:12;;;;;;;0.28;0.28;;;;;;;24.34;30.28;98287.69;5051825;28;20119;-70
2022/05/30 04:14:37;;;;;;;0.40;0.30;;;;;;;24.34;30.33;98278.53;5069556;28;20051;-69
2022/05/30 04:17:03;;;;;;;0.60;0.30;;;;;;;24.35;30.38;98280.09;5069280;28;20043;-70
2022/05/30 04:19:29;;;;;;;0.52;0.32;;;;;;;24.34;30.39;98272.94;5069039;28;20147;-70
2022/05/30 04:21:54;;;;;;;0.77;0.50;;;;;;;24.35;30.49;98288.50;5069479;28;20120;-67
2022/05/30 04:24:20;;;;;;;0.73;0.43;;;;;;;24.36;30.43;98298.44;5075732;28;20055;-67
2022/05/30 04:26:46;;;;;;;0.38;0.38;;;;;;;24.34;30.53;98290.50;5076005;28;20044;-67
2022/05/30 04:29:11;;;;;;;0.30;0.30;;;;;;;24.34;30.47;98289.72;5075975;28;20049;-67
2022/05/30 04:31:37;;;;;;;0.77;0.40;;;;;;;24.33;30.58;98297.31;5075961;28;20043;-67
2022/05/30 04:34:03;;;;;;;0.32;0.30;;;;;;;24.33;30.62;98307.69;5075858;28;20450;-66
2022/05/30 04:36:28;;;;;;;0.43;0.30;;;;;;;24.33;30.52;98305.69;5075708;28;20055;-66
2022/05/30 04:38:53;;;;;;;0.30;0.30;;;;;;;24.33;30.58;98310.50;5076149;28;20052;-67
2022/05/30 04:41:19;;;;;;;0.32;0.30;;;;;;;24.33;30.54;98324.47;5075497;28;20052;-69
2022/05/30 04:43:44;;;;;;;0.40;0.30;;;;;;;24.31;30.66;98329.66;5075793;28;20067;-70
2022/05/30 04:46:20;;;;;;;0.88;0.30;;;;;;;24.28;30.75;98322.91;5075610;28;20122;-70
2022/05/30 04:48:46;;;;;;;0.77;0.47;;;;;;;24.31;30.75;98330.47;5075936;28;20045;-66
2022/05/30 04:51:12;;;;;;;0.55;0.40;;;;;;;24.29;30.86;98327.31;5075815;28;20040;-66
2022/05/30 04:53:38;;;;;;;0.98;0.50;;;;;;;24.32;30.96;98339.63;5075476;28;20098;-66
2022/05/30 04:56:03;;;;;;;0.60;0.38;;;;;;;24.32;31.02;98340.41;5075396;28;20145;-67
2022/05/30 04:58:30;;;;;;;0.43;0.32;;;;;;;24.31;31.03;98340.84;5075375;28;20512;-66
2022/05/30 05:00:57;;;;;;;0.70;0.43;;;;;;;24.32;30.96;98350.81;5061362;28;20131;-66
2022/05/30 05:03:23;;;;;;;0.50;0.40;;;;;;;24.30;31.12;98347.66;5075397;28;20048;-70
2022/05/30 05:05:49;;;;;;;0.88;0.35;;;;;;;24.32;31.10;98356.41;5075328;28;20473;-70
2022/05/30 05:08:15;;;;;;;0.65;0.40;;;;;;;24.31;31.12;98358.41;5075321;28;20569;-69
2022/05/30 05:10:47;;;;;;;0.57;0.40;;;;;;;24.30;31.05;98358.84;5075405;28;20524;-70
2022/05/30 05:13:13;;;;;;;0.65;0.40;;;;;;;24.30;31.21;98359.63;5075466;28;20067;-70
2022/05/30 05:15:38;;;;;;;0.40;0.30;;;;;;;24.30;31.24;98356.81;5075229;28;20581;-70
2022/05/30 05:18:04;;;;;;;0.40;0.35;;;;;;;24.32;31.33;98356.41;5075056;28;20032;-69
2022/05/30 05:20:36;;;;;;;0.75;0.50;;;;;;;24.31;31.32;98363.22;5075155;28;20055;-70
2022/05/30 05:23:01;;;;;;;0.50;0.30;;;;;;;24.30;31.47;98361.63;5074995;28;20032;-70
2022/05/30 05:25:26;;;;;;;0.75;0.50;;;;;;;24.33;31.39;98364.38;5075212;28;20044;-70
2022/05/30 05:27:52;;;;;;;0.47;0.30;;;;;;;24.33;31.18;98361.59;5075034;28;20113;-70
2022/05/30 05:30:18;;;;;;;0.70;0.40;;;;;;;24.33;31.50;98366.38;5075286;28;20416;-70
2022/05/30 05:32:44;;;;;;;0.20;0.20;;;;;;;24.33;31.54;98361.59;5074921;28;20089;-66
2022/05/30 05:35:09;;;;;;;0.95;0.47;;;;;;;24.32;31.52;98359.97;5071655;28;20065;-70
2022/05/30 05:37:35;;;;;;;0.68;0.45;;;;;;;24.35;31.34;98369.53;5071634;28;20048;-69
2022/05/30 05:40:00;;;;;;;0.30;0.30;;;;;;;24.36;31.37;98374.72;5071667;28;20040;-69
2022/05/30 05:42:26;;;;;;;0.50;0.35;;;;;;;24.33;31.44;98364.38;5071846;28;20444;-70
2022/05/30 05:44:51;;;;;;;1.20;0.43;;;;;;;24.35;31.51;98370.34;5071629;28;20049;-69
2022/05/30 05:47:17;;;;;;;0.32;0.30;;;;;;;24.36;31.36;98377.53;5071893;28;20452;-69
2022/05/30 05:49:42;;;;;;;0.50;0.30;;;;;;;24.36;31.52;98383.13;5074705;28;20049;-69
2022/05/30 05:52:07;;;;;;;0.52;0.40;;;;;;;24.37;31.33;98376.31;5079781;28;20098;-70
2022/05/30 05:54:33;;;;;;;0.70;0.50;;;;;;;24.37;31.43;98372.72;5079362;28;20041;-69
2022/05/30 05:56:59;;;;;;;0.93;0.43;;;;;;;24.39;31.40;98381.47;5076085;28;20047;-70
2022/05/30 05:59:25;;;;;;;0.63;0.43;;;;;;;24.38;31.41;98385.47;5064035;28;20059;-70
2022/05/30 06:01:50;;;;;;;0.63;0.40;;;;;;;24.40;31.23;98383.03;5064493;28;20051;-69
2022/05/30 06:04:16;;;;;;;0.95;0.40;;;;;;;24.47;31.33;98385.72;5071154;28;20504;-69
2022/05/30 06:06:42;;;;;;;1.00;0.50;;;;;;;24.49;31.22;98377.69;5071292;28;20036;-70
2022/05/30 06:09:08;;;;;;;0.70;0.40;;;;;;;24.48;31.12;98373.31;5070981;28;20128;-69
2022/05/30 06:11:34;;;;;;;0.63;0.40;;;;;;;24.54;31.15;98382.03;5071358;28;20135;-69
2022/05/30 06:14:00;;;;;;;0.30;0.30;;;;;;;24.54;30.98;98382.81;5071163;28;20048;-70
2022/05/30 06:16:36;;;;;;;0.45;0.43;;;;;;;24.59;31.23;98387.13;5071330;28;20045;-70
2022/05/30 06:19:02;;;;;;;0.68;0.40;;;;;;;24.58;31.05;98382.75;5070748;28;20040;-70
2022/05/30 06:21:30;;;;;;;1.05;0.60;;;;;;;24.62;31.13;98391.88;5070873;28;20044;-69
2022/05/30 06:23:56;;;;;;;0.80;0.50;;;;;;;24.65;31.03;98391.03;5071110;28;20048;-69
2022/05/30 06:26:23;;;;;;;0.30;0.30;;;;;;;24.63;31.15;98391.44;5070830;28;20420;-69
2022/05/30 06:28:49;;;;;;;0.40;0.40;;;;;;;24.67;30.93;98380.97;5070813;28;20051;-69
2022/05/30 06:31:25;;;;;;;0.57;0.50;;;;;;;24.65;31.23;98388.22;5070598;28;20119;-67
2022/05/30 06:33:50;;;;;;;0.38;0.32;;;;;;;24.66;31.28;98382.22;5070731;28;20041;-66
2022/05/30 06:36:18;;;;;;;0.82;0.50;;;;;;;24.69;31.01;98375.75;5070695;28;20541;-66
2022/05/30 06:38:44;;;;;;;0.30;0.25;;;;;;;24.68;31.19;98382.56;5069826;28;20055;-69
2022/05/30 06:41:14;;;;;;;0.68;0.50;;;;;;;24.75;31.05;98387.25;5062868;28;20083;-70
2022/05/30 06:43:43;;;;;;;0.40;0.30;;;;;;;24.73;31.06;98378.50;5058196;28;20045;-66
2022/05/30 06:46:09;;;;;;;0.30;0.30;;;;;;;24.73;30.90;98372.13;5070319;28;20095;-66
2022/05/30 06:48:35;;;;;;;0.20;0.20;;;;;;;24.78;31.05;98377.19;5069764;28;20047;-66
2022/05/30 06:51:10;;;;;;;2.05;0.50;;;;;;;24.80;30.83;98380.38;5067708;28;20439;-66
2022/05/30 06:53:36;;;;;;;2.50;0.50;;;;;;;24.77;31.04;98372.81;5050469;28;20072;-66
2022/05/30 06:56:02;;;;;;;0.75;0.40;;;;;;;24.78;31.08;98380.00;5061676;28;20044;-66
2022/05/30 06:58:28;;;;;;;1.45;0.50;;;;;;;24.79;31.79;98375.97;5059722;28;20501;-67
2022/05/30 07:01:01;;;;;;;2.70;0.70;;;;;;;24.83;31.75;98377.50;5053764;28;20073;-63
2022/05/30 07:03:26;;;;;;;1.83;0.57;;;;;;;24.87;32.26;98383.06;5057659;28;20044;-63
2022/05/30 07:05:52;;;;;;;0.90;0.50;;;;;;;24.86;32.38;98382.25;5057195;28;20116;-63
2022/05/30 07:08:17;;;;;;;2.60;0.30;;;;;;;24.87;32.58;98377.44;5054456;28;20033;-63
2022/05/30 07:10:51;;;;;;;1.00;0.50;;;;;;;24.90;32.92;98385.75;5056375;28;20048;-63
2022/05/30 07:13:17;;;;;;;2.70;0.45;;;;;;;24.96;33.38;98388.88;5054274;28;20087;-63
2022/05/30 07:15:42;;;;;;;1.13;0.47;;;;;;;24.96;32.48;98391.66;5064585;28;20064;-62
2022/05/30 07:18:10;;;;;;;1.15;0.47;;;;;;;24.99;32.56;98391.59;5063631;28;20040;-62
2022/05/30 07:20:36;;;;;;;0.93;0.52;;;;;;;24.98;32.64;98384.41;5056942;28;20476;-63
2022/05/30 07:23:02;;;;;;;2.33;1.00;;;;;;;24.99;32.71;98397.19;5059640;28;20048;-62
2022/05/30 07:25:27;;;;;;;5.38;3.60;;;;;;;24.99;31.68;98411.16;5063372;28;20097;-63
2022/05/30 07:27:52;;;;;;;8.98;3.92;;;;;;;24.92;31.72;98404.91;5063558;28;21849;-63
2022/05/30 07:30:18;;;;;;;8.43;3.92;;;;;;;24.91;31.64;98403.34;5063769;28;20055;-63
2022/05/30 07:32:43;;;;;;;8.15;3.42;;;;;;;24.91;31.48;98400.53;5065491;28;20095;-62
2022/05/30 07:35:09;;;;;;;5.50;3.22;;;;;;;24.94;31.57;98399.69;5056247;28;20098;-62
2022/05/30 07:37:34;;;;;;;6.38;3.22;;;;;;;24.94;31.60;98396.91;5067571;28;20094;-62
2022/05/30 07:40:00;;;;;;;10.05;2.67;;;;;;;24.97;31.76;98402.41;5043668;28;20090;-62
2022/05/30 07:42:25;;;;;;;3.80;2.55;;;;;;;24.99;31.78;98399.97;5063498;28;20488;-62
2022/05/30 07:44:51;;;;;;;4.88;2.70;;;;;;;25.00;31.61;98409.16;5068311;28;20048;-63
2022/05/30 07:47:17;;;;;;;5.47;2.28;;;;;;;25.00;31.68;98414.75;5037836;28;20045;-63
2022/05/30 07:49:43;;;;;;;3.97;1.90;;;;;;;25.03;31.51;98404.72;5057953;28;20044;-63
2022/05/30 07:52:09;;;;;;;3.65;1.70;;;;;;;25.04;31.51;98406.34;5049754;28;20042;-63
2022/05/30 07:54:35;;;;;;;3.88;2.00;;;;;;;25.06;31.59;98410.28;5068411;28;20048;-63
2022/05/30 07:57:04;;;;;;;3.80;1.70;;;;;;;25.08;31.71;98410.66;5056398;28;20068;-63
2022/05/30 07:59:29;;;;;;;2.65;1.63;;;;;;;25.10;31.54;98416.63;5037910;28;20473;-63
2022/05/30 08:01:56;;;;;;;3.17;1.30;;;;;;;25.11;31.95;98415.38;5063024;28;20084;-62
2022/05/30 08:04:22;;;;;;;4.32;1.58;;;;;;;25.15;31.66;98410.53;5059058;28;20139;-66
2022/05/30 08:06:47;;;;;;;2.85;1.27;;;;;;;25.15;31.95;98412.53;5066933;28;20132;-65
2022/05/30 08:09:13;;;;;;;3.72;1.20;;;;;;;25.17;31.36;98413.69;5050117;28;20048;-66
2022/05/30 08:11:38;;;;;;;4.80;1.30;;;;;;;25.20;31.67;98406.44;5058515;28;20455;-65
2022/05/30 08:14:04;;;;;;;2.30;1.10;;;;;;;25.22;31.74;98404.78;5060519;28;20135;-66
2022/05/30 08:16:29;;;;;;;1.75;0.90;;;;;;;25.23;31.74;98406.38;5067484;28;20504;-66
2022/05/30 08:18:54;;;;;;;2.25;1.00;;;;;;;25.25;31.71;98408.72;5049113;28;20045;-66
2022/05/30 08:21:20;;;;;;;2.08;1.00;;;;;;;25.28;31.51;98412.69;5058946;28;20382;-67
2022/05/30 08:23:45;;;;;;;1.15;0.80;;;;;;;25.27;31.49;98405.50;5057244;28;20037;-66
2022/05/30 08:26:13;;;;;;;1.85;0.90;;;;;;;25.31;31.27;98406.22;5054359;28;20044;-62
2022/05/30 08:28:40;;;;;;;2.58;0.70;;;;;;;25.35;31.19;98406.94;5041222;28;20036;-63
2022/05/30 08:31:05;;;;;;;5.40;0.90;;;;;;;25.32;31.61;98407.81;5056319;28;20432;-66
2022/05/30 08:33:31;;;;;;;1.42;0.60;;;;;;;25.31;31.06;98404.22;5053825;28;20086;-66
2022/05/30 08:36:08;;;;;;;1.70;0.80;;;;;;;25.32;31.18;98399.41;5055108;28;20048;-66
2022/05/30 08:38:36;;;;;;;1.88;0.70;;;;;;;25.34;31.18;98399.75;5062893;28;20086;-66
2022/05/30 08:43:58;;;;;;;3.83;0.70;;;;;;;25.28;31.42;98396.66;5051783;28;20527;-63
2022/05/30 08:46:26;;;;;;;5.40;0.82;;;;;;;25.33;31.37;98401.00;5054795;28;20155;-63
2022/05/30 08:49:22;;;;;;;4.88;1.00;;;;;;;25.32;31.18;98396.63;5056263;28;20032;-63
2022/05/30 08:52:15;;;;;;;1.70;0.60;;;;;;;25.35;30.96;98385.31;5052722;28;20040;-63
2022/05/30 08:54:55;;;;;;;2.90;0.95;;;;;;;25.37;31.23;98396.91;5055886;28;20059;-63
2022/05/30 08:57:58;;;;;;;3.50;1.02;;;;;;;25.41;30.98;98394.81;5052233;28;20052;-63
2022/05/30 09:00:26;;;;;;;3.58;0.85;;;;;;;25.44;30.84;98398.78;5055423;28;20536;-69
2022/05/30 09:03:08;;;;;;;2.67;0.70;;;;;;;25.39;31.15;98399.28;5057532;28;20056;-66
2022/05/30 09:05:41;;;;;;;6.03;0.93;;;;;;;25.38;31.70;98403.28;5060730;28;20135;-67
2022/05/30 09:08:12;;;;;;;2.70;0.90;;;;;;;25.39;31.87;98407.66;5062679;28;20048;-66
2022/05/30 09:10:43;;;;;;;4.60;0.90;;;;;;;25.42;31.60;98404.00;5069675;28;20047;-66
2022/05/30 09:13:18;;;;;;;3.55;0.80;;;;;;;25.48;31.78;98407.88;5063941;28;20131;-66
2022/05/30 09:15:49;;;;;;;4.35;1.08;;;;;;;25.50;31.89;98408.22;5058981;28;20519;-66
2022/05/30 09:18:20;;;;;;;6.45;0.90;;;;;;;25.49;31.94;98413.03;5063520;28;20048;-66
2022/05/30 09:20:46;;;;;;;3.97;1.05;;;;;;;25.50;32.14;98402.63;5062482;28;20076;-62
2022/05/30 09:23:13;;;;;;;5.88;1.02;;;;;;;25.50;31.78;98405.44;5057236;28;20064;-62
2022/05/30 09:26:01;;;;;;;3.78;0.82;;;;;;;25.50;32.23;98392.25;5055533;28;20068;-63
2022/05/30 09:28:39;;;;;;;3.47;0.80;;;;;;;25.50;32.04;98400.66;5043043;28;20132;-62
2022/05/30 09:31:43;;;;;;;5.53;0.90;;;;;;;25.53;31.66;98394.16;5038010;28;20040;-62
2022/05/30 09:34:32;;;;;;;4.82;1.00;;;;;;;25.57;31.73;98396.09;4989388;28;20085;-62
2022/05/30 09:36:57;;;;;;;3.40;1.10;;;;;;;25.60;31.32;98395.25;4994050;28;20037;-67
2022/05/30 09:39:23;;;;;;;3.17;0.80;;;;;;;25.56;31.40;98397.31;4993609;28;20080;-67
2022/05/30 09:41:55;;;;;;;3.47;0.82;;;;;;;25.55;31.42;98399.31;4990092;28;20133;-67
2022/05/30 09:44:37;;;;;;;3.08;0.82;;;;;;;25.52;31.63;98386.22;4991365;28;20414;-66
2022/05/30 09:47:15;;;;;;;3.35;0.90;;;;;;;25.55;31.48;98388.13;4990372;28;20178;-66
2022/05/30 09:49:44;;;;;;;5.43;1.13;;;;;;;25.58;31.34;98390.09;4993063;28;20038;-66
2022/05/30 09:52:25;;;;;;;5.78;0.90;;;;;;;25.64;31.29;98393.13;4990187;28;20065;-67
2022/05/30 09:54:52;;;;;;;2.20;0.73;;;;;;;25.63;31.53;98389.56;4991952;28;20054;-67
2022/05/30 09:57:42;;;;;;;3.65;0.80;;;;;;;25.61;31.46;98374.41;4995819;28;20129;-66
2022/05/30 10:00:13;;;;;;;3.80;1.08;;;;;;;25.62;31.59;98376.78;4994701;28;20081;-67
2022/05/30 10:02:44;;;;;;;4.78;1.30;;;;;;;25.62;31.23;98384.41;4987543;28;20170;-67
2022/05/30 10:05:15;;;;;;;6.22;1.23;;;;;;;25.58;31.58;98380.91;4997493;28;20453;-67
2022/05/30 10:07:51;;;;;;;3.72;0.80;;;;;;;25.59;31.58;98374.06;4989302;28;20045;-67
2022/05/30 10:10:25;;;;;;;3.72;0.80;;;;;;;25.55;31.39;98362.13;5044576;28;20071;-67
2022/05/30 10:13:00;;;;;;;2.58;0.80;;;;;;;25.62;31.18;98365.56;5067246;28;20054;-67
2022/05/30 10:15:44;;;;;;;3.50;0.80;;;;;;;25.67;31.59;98362.28;5059324;28;20049;-66
2022/05/30 10:18:12;;;;;;;5.00;0.65;;;;;;;25.69;31.16;98357.03;5045227;28;20052;-67
2022/05/30 10:20:46;;;;;;;0.93;0.60;;;;;;;25.68;31.50;98361.03;5068903;28;20401;-67
2022/05/30 10:30:17;;;;;;;2.72;0.70;;;;;;;25.75;31.10;98357.34;5057567;28;20116;-68
2022/05/30 10:33:01;;;;;;;7.97;1.05;;;;;;;25.68;31.34;98358.25;5064814;28;20068;-66
2022/05/30 10:36:17;;;;;;;1.75;0.77;;;;;;;25.63;31.70;98358.75;5058898;28;20049;-67
2022/05/30 10:39:24;;;;;;;6.07;0.80;;;;;;;25.60;31.59;98347.63;5021856;28;20519;-67
2022/05/30 10:41:56;;;;;;;1.92;0.63;;;;;;;25.61;31.57;98357.63;5060115;28;20067;-68
2022/05/30 10:44:44;;;;;;;4.65;0.90;;;;;;;25.58;31.84;98361.28;5069590;28;20492;-66
2022/05/30 10:47:12;;;;;;;2.92;0.80;;;;;;;25.57;32.06;98357.69;5065366;28;20045;-68
2022/05/30 10:49:46;;;;;;;1.52;0.47;;;;;;;25.60;31.50;98354.03;5067127;28;21374;-68
2022/05/30 10:52:17;;;;;;;1.75;0.60;;;;;;;25.62;31.53;98354.38;5068666;28;20044;-66
2022/05/30 10:54:48;;;;;;;1.00;0.52;;;;;;;25.68;31.67;98341.44;5067576;28;20044;-68
2022/05/30 10:57:32;;;;;;;2.25;0.65;;;;;;;25.66;31.30;98349.50;5063264;28;20056;-70
2022/05/30 11:00:18;;;;;;;1.25;0.50;;;;;;;25.70;31.52;98349.41;5072196;28;20327;-66
2022/05/30 11:02:46;;;;;;;3.75;0.60;;;;;;;25.73;31.41;98349.38;5061985;28;20094;-67
2022/05/30 11:05:19;;;;;;;1.38;0.60;;;;;;;25.71;31.59;98348.97;5063430;28;20052;-66
2022/05/30 11:08:14;;;;;;;1.35;0.50;;;;;;;25.72;31.63;98352.63;5069729;28;20182;-67
2022/05/30 11:10:56;;;;;;;2.03;0.60;;;;;;;25.76;31.69;98348.50;5066394;28;20451;-65
2022/05/30 11:13:28;;;;;;;1.27;0.65;;;;;;;25.85;31.33;98345.09;5060911;28;20055;-64
2022/05/30 11:16:04;;;;;;;1.63;0.57;;;;;;;25.88;31.74;98351.84;5061482;28;20053;-65
2022/05/30 11:19:00;;;;;;;2.47;0.70;;;;;;;25.87;31.58;98350.28;5060916;28;20063;-65
2022/05/30 11:21:37;;;;;;;2.97;0.80;;;;;;;25.85;31.63;98352.69;5052210;28;20048;-65
2022/05/30 11:24:05;;;;;;;0.80;0.52;;;;;;;25.82;31.27;98350.78;5067175;28;20041;-65
2022/05/30 11:26:59;;;;;;;3.35;0.75;;;;;;;25.87;31.31;98353.06;5060741;28;20048;-65
2022/05/30 11:29:33;;;;;;;1.20;0.70;;;;;;;25.83;31.37;98341.16;5054624;28;20036;-64
2022/05/30 11:32:17;;;;;;;0.98;0.50;;;;;;;25.85;31.71;98341.50;5064576;28;20044;-65
2022/05/30 11:34:57;;;;;;;3.45;0.90;;;;;;;25.87;31.54;98342.66;5061941;28;20060;-65
2022/05/30 11:37:25;;;;;;;2.67;0.80;;;;;;;25.88;31.73;98344.22;5059095;28;20037;-65
2022/05/30 11:39:59;;;;;;;3.30;0.70;;;;;;;25.98;31.78;98354.41;5065355;28;20067;-65
2022/05/30 11:42:56;;;;;;;3.30;0.80;;;;;;;26.00;32.19;98345.53;5064253;28;20036;-65
2022/05/30 11:45:24;;;;;;;2.35;0.80;;;;;;;25.99;32.11;98344.75;5044710;28;20048;-66
2022/05/30 11:48:05;;;;;;;2.30;0.70;;;;;;;26.01;32.02;98341.53;5055586;28;20060;-68
2022/05/30 11:50:36;;;;;;;2.13;0.70;;;;;;;26.00;32.20;98337.94;5063014;28;20589;-63
2022/05/30 11:53:40;;;;;;;5.68;0.88;;;;;;;26.02;32.36;98337.50;5060052;28;20130;-63
2022/05/30 11:56:36;;;;;;;1.08;0.50;;;;;;;26.04;32.12;98329.44;5053239;28;20524;-62
2022/05/30 11:59:31;;;;;;;2.28;0.70;;;;;;;26.00;32.51;98332.34;5059093;28;20084;-63
2022/05/30 12:01:59;;;;;;;1.60;0.70;;;;;;;26.02;32.13;98335.50;5063005;28;20071;-62